createdAt,value
2017-09-09T00:01:21.783Z,6.00
2017-09-09T00:03:50.848Z,7.43
2017-09-09T00:06:19.173Z,6.13
2017-09-09T00:08:47.470Z,4.67
2017-09-09T00:11:15.947Z,6.57
2017-09-09T00:13:44.250Z,6.10
2017-09-09T00:16:12.553Z,6.13
2017-09-09T00:18:41.648Z,7.73
2017-09-09T00:21:10.707Z,8.50
2017-09-09T00:23:39.026Z,5.40
2017-09-09T00:26:07.318Z,6.97
2017-09-09T00:28:35.978Z,6.27
2017-09-09T00:31:05.039Z,5.27
2017-09-09T00:33:33.335Z,4.87
2017-09-09T00:36:02.533Z,5.70
2017-09-09T00:38:30.926Z,5.27
2017-09-09T00:41:00.015Z,7.00
2017-09-09T00:43:29.090Z,9.80
2017-09-09T00:45:57.482Z,9.07
2017-09-09T00:48:25.959Z,6.70
2017-09-09T00:50:55.174Z,7.40
2017-09-09T00:53:23.468Z,5.97
2017-09-09T00:55:51.816Z,7.27
2017-09-09T00:58:20.194Z,8.77
2017-09-09T01:00:48.510Z,9.00
2017-09-09T01:03:16.852Z,7.67
2017-09-09T01:05:45.930Z,7.50
2017-09-09T01:08:15.344Z,5.70
2017-09-09T01:10:44.420Z,7.97
2017-09-09T01:13:12.808Z,11.33
2017-09-09T01:15:41.128Z,10.37
2017-09-09T01:18:09.476Z,15.23
2017-09-09T01:20:37.810Z,13.90
2017-09-09T01:23:06.124Z,15.07
2017-09-09T01:25:34.460Z,9.50
2017-09-09T01:28:02.771Z,9.97
2017-09-09T01:30:31.122Z,7.43
2017-09-09T01:32:59.454Z,10.67
2017-09-09T01:35:28.622Z,8.80
2017-09-09T01:37:57.968Z,8.33
2017-09-09T01:40:26.511Z,8.80
2017-09-09T01:42:54.892Z,9.87
2017-09-09T01:45:24.796Z,11.20
2017-09-09T01:47:53.891Z,11.00
2017-09-09T01:50:22.990Z,13.53
2017-09-09T01:52:52.084Z,20.27
2017-09-09T01:55:21.168Z,22.10
2017-09-09T01:57:50.647Z,14.20
2017-09-09T02:00:18.962Z,12.40
2017-09-09T02:02:48.176Z,10.90
2017-09-09T02:05:16.486Z,11.53
2017-09-09T02:07:44.791Z,7.23
2017-09-09T02:10:13.122Z,8.63
2017-09-09T02:12:41.426Z,9.53
2017-09-09T02:15:09.739Z,9.60
2017-09-09T02:17:38.836Z,9.43
2017-09-09T02:20:07.167Z,11.87
2017-09-09T02:22:35.499Z,10.43
2017-09-09T02:25:03.820Z,9.30
2017-09-09T02:27:32.119Z,9.70
2017-09-09T02:30:00.436Z,8.47
2017-09-09T02:32:28.737Z,5.13
2017-09-09T02:34:57.060Z,6.83
2017-09-09T02:37:26.126Z,7.27
2017-09-09T02:39:54.455Z,7.30
2017-09-09T02:42:23.539Z,7.73
2017-09-09T02:44:52.830Z,7.70
2017-09-09T02:47:21.908Z,6.73
2017-09-09T02:49:50.194Z,8.17
2017-09-09T02:52:18.539Z,7.80
2017-09-09T02:54:46.848Z,7.13
2017-09-09T02:57:15.158Z,7.43
2017-09-09T02:59:43.491Z,8.10
2017-09-09T03:02:11.811Z,6.50
2017-09-09T03:04:40.177Z,5.80
2017-09-09T03:07:09.244Z,5.83
2017-09-09T03:09:37.579Z,6.40
2017-09-09T03:12:05.907Z,5.67
2017-09-09T03:14:35.018Z,6.60
2017-09-09T03:17:03.315Z,6.23
2017-09-09T03:19:32.174Z,7.23
2017-09-09T03:22:01.303Z,4.73
2017-09-09T03:24:29.603Z,5.93
2017-09-09T03:26:57.931Z,5.07
2017-09-09T03:29:26.994Z,5.30
2017-09-09T03:31:55.318Z,6.67
2017-09-09T03:34:23.686Z,5.30
2017-09-09T03:36:52.181Z,4.40
2017-09-09T03:39:20.475Z,5.37
2017-09-09T03:41:48.811Z,5.00
2017-09-09T03:44:17.908Z,4.90
2017-09-09T03:46:46.973Z,5.87
2017-09-09T03:49:15.295Z,5.30
2017-09-09T03:51:43.592Z,6.17
2017-09-09T03:54:11.901Z,6.50
2017-09-09T03:56:40.202Z,5.40
2017-09-09T03:59:09.503Z,5.90
2017-09-09T04:01:38.572Z,4.10
2017-09-09T04:04:07.695Z,5.60
2017-09-09T04:06:36.002Z,5.57
2017-09-09T04:09:04.354Z,5.47
2017-09-09T04:11:33.447Z,5.60
2017-09-09T04:14:02.542Z,5.20
2017-09-09T04:16:31.639Z,5.30
2017-09-09T04:18:59.954Z,6.43
2017-09-09T04:21:28.274Z,5.87
2017-09-09T04:23:56.581Z,7.57
2017-09-09T04:26:25.034Z,5.67
2017-09-09T04:28:54.109Z,6.70
2017-09-09T04:31:22.396Z,5.93
2017-09-09T04:33:50.712Z,5.17
2017-09-09T04:36:19.020Z,4.83
2017-09-09T04:38:47.335Z,5.00
2017-09-09T04:41:15.645Z,6.07
2017-09-09T04:43:43.981Z,4.67
2017-09-09T04:46:13.099Z,4.63
2017-09-09T04:48:42.177Z,5.10
2017-09-09T04:51:10.463Z,4.00
2017-09-09T04:53:38.806Z,4.20
2017-09-09T04:56:07.094Z,4.70
2017-09-09T04:58:35.519Z,4.40
2017-09-09T05:01:03.835Z,4.20
2017-09-09T05:03:32.266Z,3.73
2017-09-09T05:06:00.611Z,4.03
2017-09-09T05:08:29.684Z,3.93
2017-09-09T05:10:58.121Z,5.03
2017-09-09T05:13:26.410Z,4.27
2017-09-09T05:15:54.699Z,4.27
2017-09-09T05:18:23.033Z,5.03
2017-09-09T05:20:52.098Z,5.90
2017-09-09T05:23:20.501Z,6.17
2017-09-09T05:25:48.810Z,3.73
2017-09-09T05:28:17.148Z,4.90
2017-09-09T05:30:46.211Z,4.10
2017-09-09T05:33:14.722Z,4.40
2017-09-09T05:35:43.034Z,5.07
2017-09-09T05:38:11.332Z,5.13
2017-09-09T05:40:39.670Z,5.70
2017-09-09T05:43:08.052Z,7.13
2017-09-09T05:45:37.138Z,7.40
2017-09-09T05:48:06.235Z,9.73
2017-09-09T05:50:34.932Z,6.67
2017-09-09T05:53:03.987Z,7.40
2017-09-09T05:55:33.115Z,4.60
2017-09-09T05:58:01.430Z,5.87
2017-09-09T06:00:29.773Z,5.87
2017-09-09T06:02:58.999Z,4.33
2017-09-09T06:05:27.419Z,5.23
2017-09-09T06:07:55.719Z,5.77
2017-09-09T06:10:24.090Z,5.10
2017-09-09T06:12:52.482Z,6.50
2017-09-09T06:15:21.658Z,8.10
2017-09-09T06:17:49.999Z,6.23
2017-09-09T06:20:18.513Z,7.20
2017-09-09T06:22:46.907Z,6.37
2017-09-09T06:25:15.223Z,5.60
2017-09-09T06:27:43.533Z,6.27
2017-09-09T06:30:11.823Z,6.03
2017-09-09T06:32:40.128Z,6.63
2017-09-09T06:35:08.432Z,6.57
2017-09-09T06:37:36.750Z,5.87
2017-09-09T06:40:05.848Z,6.33
2017-09-09T06:42:35.054Z,5.90
2017-09-09T06:45:04.128Z,6.00
2017-09-09T06:47:33.208Z,4.90
2017-09-09T06:50:01.531Z,5.37
2017-09-09T06:52:29.900Z,4.23
2017-09-09T06:54:58.220Z,5.07
2017-09-09T06:57:26.525Z,5.73
2017-09-09T06:59:54.854Z,5.27
2017-09-09T07:02:23.209Z,6.10
2017-09-09T07:04:52.470Z,4.50
2017-09-09T07:07:20.786Z,4.73
2017-09-09T07:09:49.878Z,7.40
2017-09-09T07:12:18.970Z,6.37
2017-09-09T07:14:47.337Z,6.80
2017-09-09T07:17:15.708Z,6.60
2017-09-09T07:19:44.783Z,6.43
2017-09-09T07:22:14.022Z,4.40
2017-09-09T07:24:43.070Z,4.27
2017-09-09T07:27:11.687Z,4.77
2017-09-09T07:29:39.986Z,4.47
2017-09-09T07:32:08.285Z,4.97
2017-09-09T07:34:36.622Z,4.40
2017-09-09T07:37:05.745Z,4.97
2017-09-09T07:39:34.067Z,5.50
2017-09-09T07:42:02.469Z,4.60
2017-09-09T07:44:31.588Z,4.23
2017-09-09T07:46:59.896Z,4.67
2017-09-09T07:49:28.635Z,4.93
2017-09-09T07:51:57.710Z,4.53
2017-09-09T07:54:26.027Z,6.10
2017-09-09T07:56:54.375Z,4.83
2017-09-09T07:59:23.447Z,5.00
2017-09-09T08:01:52.552Z,6.30
2017-09-09T08:04:20.867Z,4.27
2017-09-09T08:06:49.352Z,4.63
2017-09-09T08:09:17.643Z,5.03
2017-09-09T08:11:46.078Z,5.30
2017-09-09T08:14:14.391Z,5.47
2017-09-09T08:16:42.695Z,6.60
2017-09-09T08:19:11.037Z,4.60
2017-09-09T08:21:39.336Z,5.20
2017-09-09T08:24:07.755Z,3.77
2017-09-09T08:26:36.085Z,4.20
2017-09-09T08:29:04.412Z,4.50
2017-09-09T08:31:32.764Z,4.10
2017-09-09T08:34:01.073Z,2.80
2017-09-09T08:36:30.256Z,3.87
2017-09-09T08:38:59.335Z,3.93
2017-09-09T08:41:27.744Z,3.40
2017-09-09T08:43:56.035Z,3.47
2017-09-09T08:46:24.415Z,3.40
2017-09-09T08:48:52.789Z,5.10
2017-09-09T08:51:21.106Z,3.30
2017-09-09T08:53:49.479Z,3.20
2017-09-09T08:56:17.809Z,2.90
2017-09-09T08:58:46.212Z,3.30
2017-09-09T09:01:14.531Z,4.27
2017-09-09T09:06:17.426Z,4.50
2017-09-09T09:08:45.939Z,5.00
2017-09-09T09:11:15.007Z,5.50
2017-09-09T09:13:43.311Z,3.67
2017-09-09T09:16:11.628Z,10.10
2017-09-09T09:18:39.963Z,6.50
2017-09-09T09:21:09.059Z,4.00
2017-09-09T09:23:37.344Z,4.50
2017-09-09T09:26:05.800Z,5.80
2017-09-09T09:28:34.148Z,3.77
2017-09-09T09:31:02.455Z,4.23
2017-09-09T09:33:30.769Z,6.87
2017-09-09T09:35:59.095Z,4.27
2017-09-09T09:38:27.440Z,6.50
2017-09-09T09:40:55.753Z,5.47
2017-09-09T09:43:24.259Z,6.63
2017-09-09T09:45:52.555Z,7.57
2017-09-09T09:48:20.858Z,7.40
2017-09-09T09:50:49.203Z,6.67
2017-09-09T09:53:17.514Z,5.80
2017-09-09T09:55:46.056Z,5.20
2017-09-09T09:58:14.349Z,7.70
2017-09-09T10:00:42.647Z,5.90
2017-09-09T10:03:10.972Z,5.90
2017-09-09T10:05:39.318Z,5.57
2017-09-09T10:08:07.635Z,6.60
2017-09-09T10:10:36.697Z,4.50
2017-09-09T10:13:05.028Z,6.53
2017-09-09T10:15:33.327Z,5.33
2017-09-09T10:18:01.750Z,4.10
2017-09-09T10:20:30.047Z,5.10
2017-09-09T10:22:58.355Z,5.50
2017-09-09T10:25:29.160Z,4.20
2017-09-09T10:27:57.467Z,5.63
2017-09-09T10:30:25.774Z,5.87
2017-09-09T10:32:54.078Z,5.13
2017-09-09T10:35:22.400Z,7.20
2017-09-09T10:37:50.711Z,5.97
2017-09-09T10:40:19.031Z,8.83
2017-09-09T10:42:47.349Z,6.90
2017-09-09T10:45:16.562Z,7.90
2017-09-09T10:47:45.652Z,5.53
2017-09-09T10:50:13.965Z,7.73
2017-09-09T10:52:42.309Z,7.30
2017-09-09T10:55:10.606Z,5.47
2017-09-09T10:57:38.978Z,4.60
2017-09-09T11:00:07.256Z,5.10
2017-09-09T11:02:36.345Z,4.80
2017-09-09T11:05:05.411Z,4.90
2017-09-09T11:07:33.858Z,5.90
2017-09-09T11:10:02.166Z,3.60
2017-09-09T11:12:30.484Z,4.30
2017-09-09T11:14:59.582Z,3.90
2017-09-09T11:17:27.872Z,4.40
2017-09-09T11:19:56.217Z,4.83
2017-09-09T11:22:25.282Z,5.47
2017-09-09T11:24:53.610Z,6.60
2017-09-09T11:27:21.927Z,4.37
2017-09-09T11:29:50.258Z,4.13
2017-09-09T11:32:18.557Z,4.20
2017-09-09T11:34:46.939Z,4.30
2017-09-09T11:37:15.299Z,3.20
2017-09-09T11:39:43.608Z,3.40
2017-09-09T11:42:12.069Z,5.43
2017-09-09T11:44:40.368Z,4.17
2017-09-09T11:47:08.683Z,4.20
2017-09-09T11:49:37.778Z,6.33
2017-09-09T11:52:06.068Z,4.27
2017-09-09T11:54:34.390Z,4.73
2017-09-09T11:57:02.717Z,4.43
2017-09-09T11:59:31.920Z,6.30
2017-09-09T12:02:00.991Z,5.10
2017-09-09T12:04:29.315Z,2.83
2017-09-09T12:06:57.666Z,4.80
2017-09-09T12:09:26.731Z,3.20
2017-09-09T12:11:55.047Z,3.90
2017-09-09T12:14:23.355Z,3.70
2017-09-09T12:16:51.683Z,3.70
2017-09-09T12:19:19.999Z,3.97
2017-09-09T12:21:48.457Z,4.40
2017-09-09T12:24:16.766Z,5.50
2017-09-09T12:26:45.071Z,6.50
2017-09-09T12:29:13.386Z,5.00
2017-09-09T12:31:41.732Z,7.50
2017-09-09T12:34:10.046Z,4.60
2017-09-09T12:36:38.353Z,4.30
2017-09-09T12:39:06.671Z,3.50
2017-09-09T12:41:35.742Z,4.70
2017-09-09T12:44:04.074Z,4.80
2017-09-09T12:46:32.366Z,4.63
2017-09-09T12:49:00.900Z,3.80
2017-09-09T12:51:29.976Z,4.83
2017-09-09T12:53:58.277Z,4.70
2017-09-09T12:56:27.514Z,4.40
2017-09-09T12:58:55.859Z,4.30
2017-09-09T13:01:24.190Z,5.33
2017-09-09T13:03:52.486Z,5.50
2017-09-09T13:06:21.702Z,6.50
2017-09-09T13:08:50.787Z,6.37
2017-09-09T13:11:19.081Z,6.60
2017-09-09T13:13:47.412Z,6.00
2017-09-09T13:16:16.508Z,5.83
2017-09-09T13:18:44.955Z,6.30
2017-09-09T13:21:13.247Z,6.83
2017-09-09T13:23:41.559Z,6.90
2017-09-09T13:26:10.667Z,7.00
2017-09-09T13:28:39.735Z,10.90
2017-09-09T13:31:08.156Z,6.90
2017-09-09T13:33:37.310Z,8.50
2017-09-09T13:36:05.679Z,7.70
2017-09-09T13:38:33.986Z,5.50
2017-09-09T13:41:03.076Z,8.67
2017-09-09T13:43:32.154Z,5.20
2017-09-09T13:46:00.623Z,6.90
2017-09-09T13:48:28.924Z,8.50
2017-09-09T13:50:57.991Z,7.40
2017-09-09T13:53:26.314Z,6.30
2017-09-09T13:55:54.635Z,7.43
2017-09-09T13:58:22.970Z,9.13
2017-09-09T14:00:51.284Z,6.00
2017-09-09T14:03:19.734Z,5.23
2017-09-09T14:05:48.072Z,10.00
2017-09-09T14:08:17.163Z,8.70
2017-09-09T14:10:45.486Z,4.87
2017-09-09T14:13:13.777Z,6.00
2017-09-09T14:15:42.119Z,9.30
2017-09-09T14:18:11.187Z,5.57
2017-09-09T14:20:39.600Z,6.27
2017-09-09T14:23:07.906Z,7.60
2017-09-09T14:25:36.208Z,6.90
2017-09-09T14:28:04.562Z,7.20
2017-09-09T14:30:32.911Z,5.40
2017-09-09T14:33:01.231Z,5.10
2017-09-09T14:35:29.553Z,4.07
2017-09-09T14:37:58.662Z,3.30
2017-09-09T14:40:26.966Z,5.30
2017-09-09T14:42:55.283Z,5.13
2017-09-09T14:45:23.637Z,3.83
2017-09-09T14:47:52.064Z,3.90
2017-09-09T14:50:20.358Z,4.27
2017-09-09T14:52:48.691Z,3.93
2017-09-09T14:55:17.016Z,4.20
2017-09-09T14:57:45.318Z,4.00
2017-09-09T15:00:13.637Z,6.27
2017-09-09T15:02:41.932Z,4.40
2017-09-09T15:05:11.003Z,5.93
2017-09-09T15:07:39.316Z,6.23
2017-09-09T15:10:07.655Z,4.77
2017-09-09T15:12:36.045Z,5.77
2017-09-09T15:15:05.253Z,5.97
2017-09-09T15:17:34.316Z,7.23
2017-09-09T15:20:03.392Z,5.90
2017-09-09T15:22:31.718Z,8.43
2017-09-09T15:25:00.121Z,6.60
2017-09-09T15:27:28.465Z,5.43
2017-09-09T15:29:56.841Z,5.83
2017-09-09T15:32:25.930Z,6.93
2017-09-09T15:34:54.982Z,6.40
2017-09-09T15:37:23.715Z,5.90
2017-09-09T15:39:52.027Z,10.60
2017-09-09T15:42:20.335Z,8.60
2017-09-09T15:44:48.686Z,17.13
2017-09-09T15:47:16.979Z,11.03
2017-09-09T15:49:45.290Z,8.20
2017-09-09T15:52:14.364Z,7.23
2017-09-09T15:54:42.764Z,8.43
2017-09-09T15:57:11.046Z,8.43
2017-09-09T15:59:40.133Z,9.50
2017-09-09T16:02:09.235Z,10.13
2017-09-09T16:04:37.584Z,12.27
2017-09-09T16:07:05.906Z,6.63
2017-09-09T16:09:34.257Z,7.80
2017-09-09T16:12:02.579Z,7.87
2017-09-09T16:14:30.921Z,9.73
2017-09-09T16:17:00.224Z,8.83
2017-09-09T16:19:29.287Z,8.37
2017-09-09T16:21:57.599Z,5.30
2017-09-09T16:24:25.943Z,15.87
2017-09-09T16:26:54.344Z,9.17
2017-09-09T16:29:23.452Z,9.77
2017-09-09T16:31:51.763Z,10.00
2017-09-09T16:34:20.083Z,8.80
2017-09-09T16:36:49.195Z,11.37
2017-09-09T16:39:18.289Z,8.67
2017-09-09T16:41:46.590Z,11.30
2017-09-09T16:44:15.139Z,12.63
2017-09-09T16:46:43.454Z,11.70
2017-09-09T16:49:11.787Z,9.40
2017-09-09T16:51:40.908Z,9.00
2017-09-09T16:54:09.966Z,11.50
2017-09-09T16:56:38.291Z,12.37
2017-09-09T16:59:06.595Z,8.93
2017-09-09T17:01:35.343Z,7.90
2017-09-09T17:04:03.646Z,8.30
2017-09-09T17:06:31.955Z,10.53
2017-09-09T17:09:01.923Z,10.43
2017-09-09T17:11:30.262Z,10.47
2017-09-09T17:13:59.361Z,11.20
2017-09-09T17:16:27.674Z,13.37
2017-09-09T17:18:56.002Z,11.93
2017-09-09T17:21:25.093Z,11.40
2017-09-09T17:23:53.600Z,8.67
2017-09-09T17:26:22.675Z,15.13
2017-09-09T17:28:51.753Z,10.63
2017-09-09T17:31:20.123Z,30.73
2017-09-09T17:33:48.531Z,13.30
2017-09-09T17:36:17.612Z,10.93
2017-09-09T17:38:45.943Z,11.50
2017-09-09T17:41:14.530Z,8.60
2017-09-09T17:43:42.866Z,12.53
2017-09-09T17:46:11.183Z,8.77
2017-09-09T17:48:39.531Z,16.10
2017-09-09T17:51:07.859Z,17.80
2017-09-09T17:53:36.307Z,10.40
2017-09-09T17:56:04.667Z,15.17
2017-09-09T17:58:33.124Z,9.63
2017-09-09T18:01:02.258Z,10.67
2017-09-09T18:03:30.582Z,10.50
2017-09-09T18:05:58.928Z,7.67
2017-09-09T18:08:27.335Z,7.10
2017-09-09T18:10:56.444Z,8.73
2017-09-09T18:13:24.762Z,8.67
2017-09-09T18:15:53.828Z,7.90
2017-09-09T18:18:22.236Z,6.53
2017-09-09T18:20:50.538Z,7.37
2017-09-09T18:23:18.919Z,11.20
2017-09-09T18:25:47.362Z,10.10
2017-09-09T18:28:15.783Z,10.60
2017-09-09T18:30:44.077Z,10.90
2017-09-09T18:33:12.407Z,8.30
2017-09-09T18:35:40.744Z,9.27
2017-09-09T18:38:09.851Z,8.00
2017-09-09T18:40:38.915Z,7.53
2017-09-09T18:43:07.248Z,7.03
2017-09-09T18:45:35.531Z,7.17
2017-09-09T18:48:03.871Z,8.77
2017-09-09T18:50:32.195Z,5.13
2017-09-09T18:53:00.537Z,5.07
2017-09-09T18:55:28.867Z,6.50
2017-09-09T18:57:57.183Z,4.77
2017-09-09T19:00:26.368Z,4.70
2017-09-09T19:02:54.826Z,6.20
2017-09-09T19:05:23.111Z,8.83
2017-09-09T19:07:51.523Z,5.90
2017-09-09T19:10:19.844Z,5.93
2017-09-09T19:12:48.255Z,5.37
2017-09-09T19:15:16.550Z,7.23
2017-09-09T19:17:45.001Z,8.47
2017-09-09T19:20:13.309Z,5.03
2017-09-09T19:22:42.362Z,4.70
2017-09-09T19:25:10.671Z,5.13
2017-09-09T19:27:38.945Z,4.77
2017-09-09T19:30:07.328Z,4.87
2017-09-09T19:32:36.387Z,4.50
2017-09-09T19:35:04.718Z,4.43
2017-09-09T19:37:33.046Z,4.23
2017-09-09T19:40:01.429Z,4.33
2017-09-09T19:42:29.731Z,3.20
2017-09-09T19:44:58.066Z,3.90
2017-09-09T19:47:26.388Z,4.47
2017-09-09T19:49:54.707Z,5.17
2017-09-09T19:52:23.015Z,4.00
2017-09-09T19:54:51.722Z,4.50
2017-09-09T19:57:20.030Z,5.70
2017-09-09T19:59:48.383Z,4.67
2017-09-09T20:02:16.857Z,6.40
2017-09-09T20:04:45.179Z,4.10
2017-09-09T20:07:13.584Z,5.57
2017-09-09T20:09:42.920Z,5.43
2017-09-09T20:12:11.380Z,6.90
2017-09-09T20:14:39.838Z,5.70
2017-09-09T20:17:08.139Z,6.57
2017-09-09T20:19:37.240Z,9.00
2017-09-09T20:22:06.307Z,6.10
2017-09-09T20:24:34.638Z,6.80
2017-09-09T20:27:02.954Z,6.63
2017-09-09T20:29:31.408Z,8.93
2017-09-09T20:31:59.725Z,7.70
2017-09-09T20:34:28.024Z,7.97
2017-09-09T20:36:57.478Z,9.63
2017-09-09T20:39:25.814Z,17.03
2017-09-09T20:41:54.187Z,12.07
2017-09-09T20:44:22.504Z,9.40
2017-09-09T20:46:50.820Z,10.23
2017-09-09T20:49:19.208Z,10.30
2017-09-09T20:51:48.347Z,9.83
2017-09-09T20:54:16.641Z,10.73
2017-09-09T20:56:45.039Z,10.40
2017-09-09T20:59:14.215Z,9.50
2017-09-09T21:01:42.634Z,13.33
2017-09-09T21:04:11.737Z,16.37
2017-09-09T21:06:40.794Z,9.13
2017-09-09T21:09:09.115Z,21.10
2017-09-09T21:11:37.424Z,12.20
2017-09-09T21:14:05.867Z,11.83
2017-09-09T21:16:34.189Z,16.13
2017-09-09T21:19:02.903Z,11.93
2017-09-09T21:21:31.994Z,11.93
2017-09-09T21:24:01.123Z,8.20
2017-09-09T21:26:30.211Z,26.97
2017-09-09T21:28:59.266Z,7.67
2017-09-09T21:31:27.672Z,8.60
2017-09-09T21:33:56.072Z,16.10
2017-09-09T21:36:24.547Z,11.40
2017-09-09T21:38:53.630Z,10.40
2017-09-09T21:41:21.975Z,10.40
2017-09-09T21:43:50.295Z,9.73
2017-09-09T21:46:19.786Z,7.60
2017-09-09T21:48:48.862Z,7.00
2017-09-09T21:51:17.153Z,5.73
2017-09-09T21:53:46.251Z,6.63
2017-09-09T21:56:14.630Z,8.07
2017-09-09T21:58:43.794Z,7.57
2017-09-09T22:01:12.243Z,4.43
2017-09-09T22:03:40.563Z,5.80
2017-09-09T22:06:08.960Z,14.00
2017-09-09T22:08:38.057Z,14.27
2017-09-09T22:11:06.445Z,11.70
2017-09-09T22:13:35.631Z,8.23
2017-09-09T22:16:04.736Z,10.27
2017-09-09T22:18:33.204Z,11.60
2017-09-09T22:21:02.316Z,6.27
2017-09-09T22:23:31.406Z,9.37
2017-09-09T22:26:00.588Z,5.97
2017-09-09T22:28:29.659Z,6.40
2017-09-09T22:30:58.070Z,5.70
2017-09-09T22:33:27.143Z,7.80
2017-09-09T22:35:55.498Z,10.77
2017-09-09T22:38:23.803Z,9.97
2017-09-09T22:40:53.218Z,9.57
2017-09-09T22:43:22.318Z,4.50
2017-09-09T22:45:51.395Z,5.47
2017-09-09T22:48:19.722Z,8.13
2017-09-09T22:50:48.019Z,9.40
2017-09-09T22:53:16.339Z,8.23
2017-09-09T22:55:45.390Z,9.03
2017-09-09T22:58:13.812Z,8.67
2017-09-09T23:00:42.187Z,8.30
2017-09-09T23:03:10.543Z,6.73
2017-09-09T23:05:38.942Z,8.27
2017-09-09T23:08:08.006Z,9.47
2017-09-09T23:10:36.328Z,9.97
2017-09-09T23:13:04.691Z,6.10
2017-09-09T23:15:33.170Z,10.10
2017-09-09T23:18:02.234Z,10.43
2017-09-09T23:20:30.570Z,6.70
2017-09-09T23:22:58.921Z,6.10
2017-09-09T23:25:27.298Z,5.17
2017-09-09T23:27:55.652Z,7.80
2017-09-09T23:30:24.052Z,5.30
2017-09-09T23:32:53.325Z,4.57
2017-09-09T23:35:21.602Z,4.73
2017-09-09T23:37:49.912Z,5.50
2017-09-09T23:40:18.982Z,6.77
2017-09-09T23:42:48.050Z,7.60
2017-09-09T23:45:16.367Z,5.80
2017-09-09T23:47:44.753Z,6.93
2017-09-09T23:50:13.964Z,6.13
2017-09-09T23:52:42.262Z,5.40
2017-09-09T23:55:10.597Z,5.93
2017-09-09T23:57:38.903Z,6.33
